Culleoka, Tennessee
Current Conditions -  °F | °C
As of 11:55 AM on Friday 24 Oct 2014 (Local Time) from KMRC Reporting Station
NA  
Wind Chill: 64°   Ceiling: NA
Heat Index: 64°   Visibility: NA
Dew Point: 46°   Wind: 3mph
Humidity: 52%   Direction: 320°NW
Pressure: 30.11"   Gusts: NA
Location:  35.48°N, 86.98°W
Report Text: KMRC 241655Z AUTO 32003KT 18/08 A3011 RMK
Loading
Personal Weather Stations






























Interactive Weather Map
Tropical Storm Tracking
New forecast layout! Learn more

10-Day Weather Forecast

Advertisements
Track Severe Weather on mobile